createdAt,value
2023-01-03T00:03:02.935Z,168.75
2023-01-03T00:06:16.828Z,154.75
2023-01-03T00:09:23.735Z,132.33
2023-01-03T00:12:31.178Z,138.00
2023-01-03T00:15:36.955Z,194.75
2023-01-03T00:18:42.665Z,169.75
2023-01-03T00:21:48.118Z,162.50
2023-01-03T00:24:54.039Z,149.00
2023-01-03T00:27:58.113Z,192.50
2023-01-03T00:31:07.266Z,203.75
2023-01-03T00:34:11.890Z,191.50
2023-01-03T00:37:17.378Z,173.50
2023-01-03T00:40:26.506Z,164.00
2023-01-03T00:43:29.926Z,157.00
2023-01-03T00:46:34.476Z,160.25
2023-01-03T00:49:38.410Z,158.00
2023-01-03T00:52:43.953Z,141.67
2023-01-03T00:55:48.126Z,153.33
2023-01-03T00:58:53.778Z,155.00
2023-01-03T01:01:59.116Z,132.25
2023-01-03T01:05:07.166Z,152.67
2023-01-03T01:08:13.253Z,135.00
2023-01-03T01:11:21.383Z,137.00
2023-01-03T01:14:28.393Z,146.50
2023-01-03T01:17:33.265Z,126.33
2023-01-03T01:20:40.747Z,143.50
2023-01-03T01:23:48.407Z,135.33
2023-01-03T01:26:52.670Z,137.67
2023-01-03T01:29:56.723Z,151.75
2023-01-03T01:33:00.325Z,167.50
2023-01-03T01:36:07.735Z,149.33
2023-01-03T01:39:15.110Z,154.25
2023-01-03T01:42:37.585Z,153.75
2023-01-03T01:45:41.064Z,151.67
2023-01-03T01:48:45.055Z,148.25
2023-01-03T01:51:50.086Z,144.67
2023-01-03T01:54:57.904Z,143.67
2023-01-03T01:58:03.132Z,148.50
2023-01-03T02:01:11.336Z,152.25
2023-01-03T02:04:20.803Z,146.00
2023-01-03T02:07:27.614Z,133.33
2023-01-03T02:10:53.452Z,122.33
2023-01-03T02:14:11.639Z,134.33
2023-01-03T02:17:22.215Z,136.67
2023-01-03T02:20:38.588Z,148.33
2023-01-03T02:24:22.611Z,143.67
2023-01-03T02:28:01.115Z,128.33
2023-01-03T02:31:13.205Z,126.67
2023-01-03T02:34:25.057Z,138.67
2023-01-03T02:37:35.805Z,99.67
2023-01-03T02:40:45.672Z,130.33
2023-01-03T02:43:56.263Z,110.67
2023-01-03T02:47:11.441Z,110.67
2023-01-03T02:50:16.409Z,124.33
2023-01-03T02:53:28.906Z,116.33
2023-01-03T02:56:39.607Z,118.67
2023-01-03T02:59:48.508Z,111.33
2023-01-03T03:02:59.553Z,119.33
2023-01-03T03:06:13.933Z,108.67
2023-01-03T03:09:21.201Z,108.33
2023-01-03T03:12:49.028Z,116.33
2023-01-03T03:15:59.635Z,106.33
2023-01-03T03:19:41.052Z,104.33
2023-01-03T03:23:09.013Z,108.67
2023-01-03T03:26:17.718Z,101.00
2023-01-03T03:29:21.137Z,107.00
2023-01-03T03:32:28.470Z,99.67
2023-01-03T03:35:38.252Z,102.33
2023-01-03T03:38:46.642Z,97.67
2023-01-03T03:42:11.499Z,103.67
2023-01-03T03:45:26.298Z,74.00
2023-01-03T03:48:54.666Z,98.00
2023-01-03T03:52:03.228Z,93.00
2023-01-03T03:55:12.848Z,93.00
2023-01-03T03:58:23.368Z,91.67
2023-01-03T04:01:29.397Z,101.67
2023-01-03T04:04:38.300Z,96.00
2023-01-03T04:07:44.764Z,98.67
2023-01-03T04:10:49.478Z,97.67
2023-01-03T04:13:53.190Z,95.25
2023-01-03T04:16:57.427Z,89.33
2023-01-03T04:20:02.331Z,76.67
2023-01-03T04:23:07.733Z,89.33
2023-01-03T04:26:13.185Z,92.00
2023-01-03T04:29:18.605Z,88.33
2023-01-03T04:32:26.106Z,87.25
2023-01-03T04:35:33.684Z,91.25
2023-01-03T04:38:38.850Z,77.75
2023-01-03T04:41:43.159Z,77.75
2023-01-03T04:44:45.680Z,72.00
2023-01-03T04:47:49.836Z,85.00
2023-01-03T04:50:54.736Z,73.00
2023-01-03T04:54:00.849Z,91.00
2023-01-03T04:57:04.866Z,83.50
2023-01-03T05:00:10.285Z,81.25
2023-01-03T05:03:14.473Z,81.50
2023-01-03T05:06:21.893Z,82.00
2023-01-03T05:09:28.599Z,82.50
2023-01-03T05:12:32.577Z,117.67
2023-01-03T05:15:38.081Z,106.00
2023-01-03T05:18:42.911Z,76.00
2023-01-03T05:22:16.127Z,84.00
2023-01-03T05:25:39.563Z,81.00
2023-01-03T05:28:46.686Z,82.00
2023-01-03T05:31:51.912Z,81.50
2023-01-03T05:34:55.627Z,78.25
2023-01-03T05:38:00.814Z,75.00
2023-01-03T05:41:08.197Z,86.00
2023-01-03T05:44:12.215Z,87.33
2023-01-03T05:47:16.855Z,108.00
2023-01-03T05:50:21.132Z,84.25
2023-01-03T05:53:26.221Z,74.00
2023-01-03T05:56:32.432Z,68.75
2023-01-03T05:59:36.263Z,86.00
2023-01-03T06:02:40.511Z,76.75
2023-01-03T06:05:50.612Z,87.00
2023-01-03T06:08:56.781Z,81.67
2023-01-03T06:12:08.333Z,76.75
2023-01-03T06:15:15.340Z,78.50
2023-01-03T06:18:17.940Z,75.25
2023-01-03T06:21:22.317Z,84.25
2023-01-03T06:24:26.126Z,83.75
2023-01-03T06:27:31.624Z,64.25
2023-01-03T06:30:37.120Z,70.25
2023-01-03T06:33:43.597Z,69.50
2023-01-03T06:36:47.279Z,74.50
2023-01-03T06:39:51.196Z,79.75
2023-01-03T06:42:56.474Z,70.50
2023-01-03T06:46:18.997Z,77.50
2023-01-03T06:49:41.702Z,69.50
2023-01-03T06:53:02.993Z,104.67
2023-01-03T06:56:07.475Z,88.00
2023-01-03T06:59:14.261Z,98.33
2023-01-03T07:02:18.042Z,79.75
2023-01-03T07:05:24.817Z,82.75
2023-01-03T07:08:29.665Z,72.00
2023-01-03T07:11:36.019Z,79.50
2023-01-03T07:14:44.336Z,74.75
2023-01-03T07:17:49.293Z,75.50
2023-01-03T07:20:54.999Z,73.00
2023-01-03T07:24:04.385Z,47.25
2023-01-03T07:27:08.239Z,70.50
2023-01-03T07:30:14.680Z,78.75
2023-01-03T07:33:19.347Z,90.00
2023-01-03T07:36:23.708Z,124.33
2023-01-03T07:39:27.295Z,125.00
2023-01-03T07:42:57.663Z,131.67
2023-01-03T07:46:07.536Z,201.25
2023-01-03T07:49:12.531Z,478.25
2023-01-03T07:52:16.310Z,544.00
2023-01-03T07:55:20.185Z,432.25
2023-01-03T07:58:23.678Z,406.50
2023-01-03T08:01:30.339Z,398.75
2023-01-03T08:04:34.540Z,352.25
2023-01-03T08:07:39.323Z,337.50
2023-01-03T08:11:02.990Z,350.00
2023-01-03T08:14:07.381Z,284.00
2023-01-03T08:17:20.282Z,305.75
2023-01-03T08:20:25.324Z,291.50
2023-01-03T08:23:30.264Z,254.00
2023-01-03T08:26:34.309Z,236.75
2023-01-03T08:29:45.235Z,197.00
2023-01-03T08:32:51.266Z,207.00
2023-01-03T08:36:01.909Z,203.25
2023-01-03T08:39:11.555Z,214.00
2023-01-03T08:42:20.770Z,214.50
2023-01-03T08:45:39.729Z,244.50
2023-01-03T08:48:46.192Z,228.75
2023-01-03T08:51:52.858Z,235.00
2023-01-03T08:55:05.706Z,272.50
2023-01-03T08:58:10.105Z,265.75
2023-01-03T09:01:17.327Z,239.50
2023-01-03T09:04:23.043Z,259.75
2023-01-03T09:07:26.565Z,243.00
2023-01-03T09:10:39.702Z,242.75
2023-01-03T09:13:46.873Z,241.00
2023-01-03T09:16:51.118Z,190.75
2023-01-03T09:19:56.714Z,219.50
2023-01-03T09:23:02.202Z,224.50
2023-01-03T09:26:07.784Z,197.50
2023-01-03T09:29:15.362Z,179.50
2023-01-03T09:32:38.409Z,191.25
2023-01-03T09:35:54.249Z,189.50
2023-01-03T09:38:57.783Z,185.00
2023-01-03T09:42:22.230Z,189.75
2023-01-03T09:45:29.893Z,193.00
2023-01-03T09:48:36.937Z,189.25
2023-01-03T09:52:05.514Z,233.25
2023-01-03T09:55:43.979Z,175.00
2023-01-03T09:59:13.838Z,191.25
2023-01-03T10:03:10.107Z,192.75
2023-01-03T10:06:30.332Z,191.75
2023-01-03T10:09:44.432Z,191.50
2023-01-03T10:13:02.819Z,177.25
2023-01-03T10:16:18.161Z,206.75
2023-01-03T10:19:40.358Z,213.25
2023-01-03T10:22:48.649Z,78.00
2023-01-03T10:25:54.309Z,39.25
2023-01-03T10:29:00.282Z,36.00
2023-01-03T10:32:29.279Z,21.00
2023-01-03T10:35:35.812Z,27.75
2023-01-03T10:38:53.316Z,22.75
2023-01-03T10:42:10.353Z,17.75
2023-01-03T10:45:17.785Z,21.50
2023-01-03T10:48:24.831Z,23.75
2023-01-03T10:51:38.468Z,19.50
2023-01-03T10:54:55.874Z,36.00
2023-01-03T10:58:04.953Z,18.00
2023-01-03T11:01:31.597Z,19.75
2023-01-03T11:04:39.286Z,27.75
2023-01-03T11:07:48.490Z,16.00
2023-01-03T11:11:00.649Z,17.00
2023-01-03T11:14:36.644Z,39.25
2023-01-03T11:17:55.162Z,56.50
2023-01-03T11:21:09.224Z,36.00
2023-01-03T11:24:32.031Z,38.50
2023-01-03T11:28:30.672Z,30.00
2023-01-03T11:31:54.288Z,20.50
2023-01-03T11:35:23.897Z,27.50
2023-01-03T11:38:53.942Z,22.50
2023-01-03T11:42:21.782Z,30.00
2023-01-03T11:45:48.424Z,30.50
2023-01-03T11:49:20.202Z,35.50
2023-01-03T11:52:49.255Z,34.00
2023-01-03T11:56:08.484Z,24.00
2023-01-03T11:59:45.357Z,37.25
2023-01-03T12:03:08.415Z,57.00
2023-01-03T12:07:45.214Z,41.00
2023-01-03T12:10:41.770Z,43.75
2023-01-03T12:13:54.353Z,51.00
2023-01-03T12:17:04.078Z,63.00
2023-01-03T12:20:16.255Z,41.00
2023-01-03T12:23:33.486Z,49.75
2023-01-03T12:26:43.456Z,41.00
2023-01-03T12:30:00.250Z,54.75
2023-01-03T12:33:15.872Z,49.75
2023-01-03T12:36:29.450Z,45.50
2023-01-03T12:39:48.541Z,80.25
2023-01-03T12:43:04.870Z,29.50
2023-01-03T12:46:22.627Z,39.50
2023-01-03T12:49:36.943Z,39.50
2023-01-03T12:52:43.770Z,56.50
2023-01-03T12:56:10.109Z,59.00
2023-01-03T12:59:39.208Z,65.50
2023-01-03T13:02:51.354Z,53.25
2023-01-03T13:06:00.641Z,55.25
2023-01-03T13:09:08.596Z,57.25
2023-01-03T13:12:17.379Z,70.50
2023-01-03T13:15:36.089Z,65.25
2023-01-03T13:18:42.201Z,66.00
2023-01-03T13:22:02.701Z,72.25
2023-01-03T13:25:40.892Z,74.50
2023-01-03T13:28:45.646Z,83.50
2023-01-03T13:32:18.181Z,80.50
2023-01-03T13:35:33.041Z,81.50
2023-01-03T13:38:37.118Z,84.50
2023-01-03T13:41:41.367Z,85.75
2023-01-03T13:44:44.979Z,62.50
2023-01-03T13:47:51.751Z,61.50
2023-01-03T13:51:08.350Z,60.50
2023-01-03T13:54:36.588Z,72.00
2023-01-03T13:57:53.606Z,69.00
2023-01-03T14:01:05.582Z,76.50
2023-01-03T14:04:52.012Z,60.25
2023-01-03T14:08:18.520Z,60.25
2023-01-03T14:11:38.034Z,53.75
2023-01-03T14:14:51.444Z,61.50
2023-01-03T14:18:00.880Z,71.50
2023-01-03T14:21:15.640Z,75.00
2023-01-03T14:24:29.435Z,84.50
2023-01-03T14:27:46.000Z,58.50
2023-01-03T14:31:02.143Z,62.50
2023-01-03T14:34:34.280Z,65.25
2023-01-03T14:37:48.592Z,70.50
2023-01-03T14:40:57.666Z,67.25
2023-01-03T14:44:15.981Z,129.00
2023-01-03T14:47:22.336Z,106.25
2023-01-03T14:50:34.101Z,88.00
2023-01-03T14:53:51.127Z,89.75
2023-01-03T14:57:05.066Z,75.00
2023-01-03T15:00:33.396Z,69.00
2023-01-03T15:03:50.141Z,58.25
2023-01-03T15:07:06.330Z,77.25
2023-01-03T15:10:24.123Z,71.75
2023-01-03T15:13:37.482Z,67.00
2023-01-03T15:16:44.408Z,55.50
2023-01-03T15:19:55.456Z,64.00
2023-01-03T15:23:02.845Z,69.50
2023-01-03T15:26:24.566Z,76.00
2023-01-03T15:29:45.389Z,76.00
2023-01-03T15:32:55.899Z,85.00
2023-01-03T15:36:03.854Z,86.75
2023-01-03T15:39:20.193Z,80.50
2023-01-03T15:42:45.872Z,83.00
2023-01-03T15:46:18.325Z,136.67
2023-01-03T15:49:30.302Z,120.33
2023-01-03T15:52:36.274Z,89.50
2023-01-03T15:55:45.612Z,78.50
2023-01-03T15:58:53.380Z,72.25
2023-01-03T16:02:00.494Z,73.75
2023-01-03T16:05:21.546Z,110.00
2023-01-03T16:08:32.949Z,123.00
2023-01-03T16:11:42.650Z,88.00
2023-01-03T16:14:59.238Z,84.25
2023-01-03T16:18:06.064Z,85.25
2023-01-03T16:21:09.791Z,63.25
2023-01-03T16:24:17.168Z,80.75
2023-01-03T16:27:23.003Z,95.00
2023-01-03T16:30:26.909Z,146.33
2023-01-03T16:33:35.226Z,97.75
2023-01-03T16:36:41.275Z,71.00
2023-01-03T16:39:48.224Z,67.00
2023-01-03T16:42:54.201Z,56.25
2023-01-03T16:46:02.735Z,54.25
2023-01-03T16:49:14.297Z,79.50
2023-01-03T16:52:26.167Z,88.00
2023-01-03T16:55:34.421Z,128.67
2023-01-03T16:58:39.338Z,166.00
2023-01-03T17:01:44.426Z,140.00
2023-01-03T17:04:49.753Z,99.00
2023-01-03T17:08:02.650Z,100.00
2023-01-03T17:11:08.434Z,83.75
2023-01-03T17:14:18.599Z,97.50
2023-01-03T17:17:24.198Z,69.50
2023-01-03T17:20:29.549Z,77.75
2023-01-03T17:23:39.087Z,73.50
2023-01-03T17:26:43.468Z,69.25
2023-01-03T17:29:48.792Z,94.25
2023-01-03T17:32:53.030Z,71.75
2023-01-03T17:35:58.273Z,69.75
2023-01-03T17:39:03.804Z,77.00
2023-01-03T17:42:16.612Z,102.00
2023-01-03T17:45:39.913Z,72.75
2023-01-03T17:49:02.834Z,58.00
2023-01-03T17:52:22.913Z,82.25
2023-01-03T17:55:30.810Z,76.75
2023-01-03T17:58:37.470Z,69.00
2023-01-03T18:01:43.320Z,64.75
2023-01-03T18:05:15.133Z,69.25
2023-01-03T18:08:20.416Z,69.00
2023-01-03T18:11:28.583Z,65.75
2023-01-03T18:14:32.370Z,49.25
2023-01-03T18:17:40.371Z,118.67
2023-01-03T18:20:43.862Z,97.00
2023-01-03T18:23:54.423Z,79.75
2023-01-03T18:26:59.644Z,97.33
2023-01-03T18:30:03.501Z,85.75
2023-01-03T18:33:13.913Z,93.50
2023-01-03T18:36:27.328Z,65.50
2023-01-03T18:39:35.040Z,106.00
2023-01-03T18:43:08.647Z,98.00
2023-01-03T18:46:38.808Z,75.00
2023-01-03T18:49:43.534Z,71.75
2023-01-03T18:52:48.546Z,97.25
2023-01-03T18:55:54.461Z,94.00
2023-01-03T18:59:02.359Z,80.00
2023-01-03T19:02:15.537Z,92.75
2023-01-03T19:05:20.053Z,123.33
2023-01-03T19:08:26.806Z,67.00
2023-01-03T19:11:35.599Z,70.75
2023-01-03T19:14:44.902Z,66.00
2023-01-03T19:17:50.719Z,58.50
2023-01-03T19:20:54.610Z,60.25
2023-01-03T19:24:03.403Z,52.75
2023-01-03T19:27:14.794Z,63.50
2023-01-03T19:30:21.829Z,65.50
2023-01-03T19:33:26.490Z,75.25
2023-01-03T19:36:30.178Z,81.25
2023-01-03T19:39:37.739Z,96.75
2023-01-03T19:42:48.648Z,158.33
2023-01-03T19:45:53.614Z,101.67
2023-01-03T19:48:57.307Z,88.75
2023-01-03T19:52:01.615Z,75.50
2023-01-03T19:55:05.993Z,85.50
2023-01-03T19:58:17.725Z,75.50
2023-01-03T20:01:21.401Z,67.75
2023-01-03T20:04:25.885Z,66.50
2023-01-03T20:07:29.903Z,69.50
2023-01-03T20:10:37.765Z,88.00
2023-01-03T20:13:43.095Z,85.50
2023-01-03T20:16:47.305Z,84.25
2023-01-03T20:19:54.241Z,78.50
2023-01-03T20:23:06.734Z,88.00
2023-01-03T20:26:24.514Z,90.75
2023-01-03T20:29:33.837Z,80.25
2023-01-03T20:32:37.918Z,78.50
2023-01-03T20:39:17.510Z,65.50
2023-01-03T20:42:23.103Z,69.25
2023-01-03T20:45:28.903Z,50.75
2023-01-03T20:48:34.517Z,49.75
2023-01-03T20:51:38.154Z,61.75
2023-01-03T20:54:46.043Z,62.75
2023-01-03T20:57:50.896Z,71.00
2023-01-03T21:01:04.026Z,53.50
2023-01-03T21:04:12.970Z,68.75
2023-01-03T21:07:29.303Z,59.25
2023-01-03T21:10:36.852Z,41.50
2023-01-03T21:13:42.291Z,63.50
2023-01-03T21:16:50.618Z,59.50
2023-01-03T21:19:56.560Z,67.50
2023-01-03T21:23:01.373Z,63.25
2023-01-03T21:26:07.677Z,63.75
2023-01-03T21:29:12.423Z,61.50
2023-01-03T21:32:17.854Z,64.75
2023-01-03T21:35:23.024Z,55.25
2023-01-03T21:38:27.346Z,61.00
2023-01-03T21:41:33.575Z,60.25
2023-01-03T21:44:37.573Z,54.75
2023-01-03T21:47:43.006Z,64.25
2023-01-03T21:50:50.018Z,57.75
2023-01-03T21:53:53.623Z,57.25
2023-01-03T21:56:58.325Z,58.00
2023-01-03T22:00:01.822Z,62.75
2023-01-03T22:03:29.147Z,65.75
2023-01-03T22:06:32.623Z,63.50
2023-01-03T22:09:54.557Z,66.25
2023-01-03T22:13:02.229Z,66.25
2023-01-03T22:16:07.693Z,73.00
2023-01-03T22:19:12.763Z,58.25
2023-01-03T22:22:17.057Z,67.50
2023-01-03T22:25:25.519Z,58.00
2023-01-03T22:28:37.114Z,74.25
2023-01-03T22:31:40.635Z,45.50
2023-01-03T22:34:46.484Z,65.00
2023-01-03T22:37:49.963Z,72.50
2023-01-03T22:40:53.838Z,71.25
2023-01-03T22:43:57.448Z,73.25
2023-01-03T22:47:02.778Z,78.50
2023-01-03T22:50:09.839Z,73.75
2023-01-03T22:53:16.691Z,69.50
2023-01-03T22:56:20.549Z,62.50
2023-01-03T22:59:24.951Z,69.50
2023-01-03T23:02:30.258Z,60.50
2023-01-03T23:05:38.109Z,67.25
2023-01-03T23:08:42.351Z,77.00
2023-01-03T23:12:04.144Z,75.75
2023-01-03T23:15:08.451Z,70.25
2023-01-03T23:18:12.435Z,101.75
2023-01-03T23:21:17.259Z,94.75
2023-01-03T23:24:26.030Z,97.00
2023-01-03T23:27:30.007Z,77.00
2023-01-03T23:30:34.088Z,60.25
2023-01-03T23:33:38.071Z,56.50
2023-01-03T23:36:43.840Z,68.75
2023-01-03T23:39:47.389Z,62.50
2023-01-03T23:42:51.247Z,77.75
2023-01-03T23:46:12.010Z,91.25
2023-01-03T23:49:26.954Z,150.67
2023-01-03T23:52:33.964Z,97.67
2023-01-03T23:55:38.377Z,110.00
2023-01-03T23:58:42.170Z,92.25
